createdAt,value
2018-06-19T00:02:02.716Z,18.39
2018-06-19T00:04:31.757Z,18.31
2018-06-19T00:07:00.743Z,18.16
2018-06-19T00:09:29.773Z,18.06
2018-06-19T00:11:58.739Z,17.95
2018-06-19T00:14:27.744Z,17.83
2018-06-19T00:16:56.945Z,17.74
2018-06-19T00:19:27.104Z,17.70
2018-06-19T00:21:58.062Z,17.66
2018-06-19T00:24:27.022Z,17.55
2018-06-19T00:26:55.995Z,17.42
2018-06-19T00:29:24.988Z,17.36
2018-06-19T00:31:53.975Z,17.28
2018-06-19T00:34:22.932Z,17.20
2018-06-19T00:36:51.899Z,17.12
2018-06-19T00:39:20.889Z,17.10
2018-06-19T00:41:49.895Z,17.07
2018-06-19T00:44:19.963Z,17.04
2018-06-19T00:46:50.797Z,16.97
2018-06-19T00:49:19.807Z,16.98
2018-06-19T00:51:48.851Z,16.92
2018-06-19T00:54:17.886Z,16.84
2018-06-19T00:56:52.062Z,16.79
2018-06-19T00:59:21.064Z,16.80
2018-06-19T01:01:50.257Z,16.81
2018-06-19T01:04:19.244Z,16.75
2018-06-19T01:06:48.342Z,16.71
2018-06-19T01:09:19.476Z,16.64
2018-06-19T01:11:48.535Z,16.62
2018-06-19T01:14:17.577Z,16.55
2018-06-19T01:16:46.551Z,16.50
2018-06-19T01:19:15.544Z,16.47
2018-06-19T01:21:44.590Z,16.40
2018-06-19T01:24:13.829Z,16.36
2018-06-19T01:26:43.167Z,16.33
2018-06-19T01:29:12.839Z,16.27
2018-06-19T01:31:42.037Z,16.25
2018-06-19T01:34:11.206Z,16.20
2018-06-19T01:36:40.181Z,16.15
2018-06-19T01:39:10.197Z,16.13
2018-06-19T01:41:39.198Z,16.14
2018-06-19T01:44:08.191Z,16.11
2018-06-19T01:46:37.172Z,16.11
2018-06-19T01:49:06.196Z,16.08
2018-06-19T01:51:35.165Z,16.12
2018-06-19T01:54:04.287Z,16.14
2018-06-19T01:56:33.240Z,16.15
2018-06-19T01:59:02.243Z,16.04
2018-06-19T02:01:31.309Z,16.09
2018-06-19T02:04:00.295Z,16.07
2018-06-19T02:06:29.320Z,16.17
2018-06-19T02:08:58.697Z,16.23
2018-06-19T02:11:27.685Z,16.31
2018-06-19T02:13:56.773Z,16.38
2018-06-19T02:16:25.773Z,16.36
2018-06-19T02:18:54.877Z,16.30
2018-06-19T02:21:23.854Z,16.36
2018-06-19T02:23:52.814Z,16.37
2018-06-19T02:26:21.870Z,16.34
2018-06-19T02:28:50.894Z,16.27
2018-06-19T02:31:20.035Z,16.20
2018-06-19T02:33:48.995Z,16.19
2018-06-19T02:36:18.032Z,16.11
2018-06-19T02:38:47.021Z,16.04
2018-06-19T02:41:21.445Z,16.19
2018-06-19T02:43:50.413Z,16.14
2018-06-19T02:46:19.378Z,16.09
2018-06-19T02:48:48.345Z,16.04
2018-06-19T02:51:17.342Z,16.08
2018-06-19T02:53:46.687Z,16.08
2018-06-19T02:56:15.786Z,16.19
2018-06-19T02:58:44.781Z,16.22
2018-06-19T03:01:13.809Z,16.27
2018-06-19T03:03:42.811Z,16.32
2018-06-19T03:06:11.843Z,16.38
2018-06-19T03:08:40.829Z,16.40
2018-06-19T03:11:09.826Z,16.58
2018-06-19T03:13:38.780Z,16.82
2018-06-19T03:16:07.791Z,16.83
2018-06-19T03:18:36.868Z,16.88
2018-06-19T03:21:05.944Z,16.87
2018-06-19T03:23:34.941Z,16.93
2018-06-19T03:26:04.561Z,16.99
2018-06-19T03:28:33.576Z,17.01
2018-06-19T03:31:02.694Z,17.09
2018-06-19T03:33:31.813Z,17.12
2018-06-19T03:36:00.822Z,17.17
2018-06-19T03:38:29.803Z,17.21
2018-06-19T03:40:58.792Z,17.31
2018-06-19T03:43:27.949Z,17.35
2018-06-19T03:45:56.949Z,17.43
2018-06-19T03:48:25.944Z,17.42
2018-06-19T03:50:55.795Z,17.50
2018-06-19T03:53:24.897Z,17.49
2018-06-19T03:55:53.881Z,17.51
2018-06-19T03:58:22.869Z,17.50
2018-06-19T04:00:51.987Z,17.48
2018-06-19T04:03:21.011Z,17.51
2018-06-19T04:08:18.051Z,17.66
2018-06-19T04:10:47.119Z,17.70
2018-06-19T04:13:16.182Z,17.77
2018-06-19T04:15:45.268Z,17.74
2018-06-19T04:18:14.311Z,17.77
2018-06-19T04:20:43.515Z,17.84
2018-06-19T04:23:12.536Z,17.92
2018-06-19T04:25:41.519Z,18.01
2018-06-19T04:28:10.592Z,18.06
2018-06-19T04:30:39.666Z,18.11
2018-06-19T04:33:08.636Z,18.18
2018-06-19T04:35:37.703Z,18.19
2018-06-19T04:38:06.676Z,18.23
2018-06-19T04:40:35.693Z,18.31
2018-06-19T04:43:04.768Z,18.31
2018-06-19T04:45:33.870Z,18.36
2018-06-19T04:48:02.881Z,18.42
2018-06-19T04:50:32.080Z,18.44
2018-06-19T04:53:01.223Z,18.49
2018-06-19T04:55:30.197Z,18.60
2018-06-19T04:57:59.182Z,18.75
2018-06-19T05:00:28.155Z,18.97
2018-06-19T05:02:57.142Z,19.30
2018-06-19T05:05:26.241Z,19.62
2018-06-19T05:07:55.280Z,19.87
2018-06-19T05:10:24.344Z,20.23
2018-06-19T05:12:53.594Z,20.35
2018-06-19T05:15:22.563Z,20.46
2018-06-19T05:17:51.535Z,20.47
2018-06-19T05:20:20.727Z,20.62
2018-06-19T05:22:53.365Z,20.60
2018-06-19T05:25:22.643Z,20.68
2018-06-19T05:27:52.148Z,20.61
2018-06-19T05:30:21.383Z,20.66
2018-06-19T05:32:50.477Z,20.76
2018-06-19T05:35:19.466Z,20.69
2018-06-19T05:37:48.503Z,20.68
2018-06-19T05:40:17.617Z,20.78
2018-06-19T05:42:46.633Z,20.84
2018-06-19T05:45:15.614Z,21.07
2018-06-19T05:47:44.635Z,20.99
2018-06-19T05:50:13.822Z,21.14
2018-06-19T05:52:42.904Z,21.30
2018-06-19T05:55:12.035Z,21.26
2018-06-19T05:57:41.063Z,21.28
2018-06-19T06:00:10.085Z,21.34
2018-06-19T06:02:38.998Z,21.32
2018-06-19T06:05:10.473Z,21.38
2018-06-19T06:07:39.495Z,21.52
2018-06-19T06:10:08.490Z,21.70
2018-06-19T06:12:37.458Z,21.64
2018-06-19T06:15:06.510Z,21.83
2018-06-19T06:17:35.474Z,21.95
2018-06-19T06:20:05.394Z,22.01
2018-06-19T06:22:34.439Z,22.12
2018-06-19T06:25:03.426Z,22.18
2018-06-19T06:27:32.477Z,22.11
2018-06-19T06:30:01.484Z,22.05
2018-06-19T06:32:30.497Z,22.10
2018-06-19T06:34:59.480Z,22.16
2018-06-19T06:37:28.459Z,22.09
2018-06-19T06:39:57.445Z,22.17
2018-06-19T06:42:26.431Z,22.43
2018-06-19T06:44:55.552Z,22.31
2018-06-19T06:47:24.517Z,22.38
2018-06-19T06:49:53.459Z,22.45
2018-06-19T06:52:22.526Z,22.62
2018-06-19T06:54:51.530Z,22.79
2018-06-19T06:57:20.558Z,22.93
2018-06-19T06:59:49.532Z,23.16
2018-06-19T07:02:18.535Z,23.22
2018-06-19T07:04:47.519Z,23.14
2018-06-19T07:07:16.509Z,23.15
2018-06-19T07:09:45.533Z,22.95
2018-06-19T07:12:14.566Z,22.82
2018-06-19T07:14:43.587Z,22.95
2018-06-19T07:17:12.571Z,23.03
2018-06-19T07:19:41.536Z,23.21
2018-06-19T07:22:10.529Z,23.50
2018-06-19T07:24:39.481Z,24.35
2018-06-19T07:27:08.668Z,24.62
2018-06-19T07:29:37.647Z,24.78
2018-06-19T07:32:06.944Z,24.86
2018-06-19T07:34:35.940Z,25.18
2018-06-19T07:37:04.923Z,25.10
2018-06-19T07:39:33.897Z,25.01
2018-06-19T07:42:02.902Z,25.12
2018-06-19T07:44:31.861Z,25.41
2018-06-19T07:47:00.916Z,25.04
2018-06-19T07:49:29.967Z,25.10
2018-06-19T07:51:58.968Z,25.31
2018-06-19T07:54:28.011Z,24.72
2018-06-19T07:56:57.029Z,24.23
2018-06-19T07:59:26.018Z,23.77
2018-06-19T08:01:55.024Z,23.32
2018-06-19T08:04:23.989Z,23.23
2018-06-19T08:06:52.997Z,22.86
2018-06-19T08:09:21.982Z,22.63
2018-06-19T08:11:50.999Z,22.60
2018-06-19T08:14:19.988Z,22.45
2018-06-19T08:16:49.010Z,22.29
2018-06-19T08:19:18.022Z,22.25
2018-06-19T08:21:47.080Z,22.56
2018-06-19T08:24:16.066Z,22.88
2018-06-19T08:26:45.084Z,23.39
2018-06-19T08:29:14.106Z,23.72
2018-06-19T08:31:43.144Z,24.07
2018-06-19T08:34:12.174Z,24.87
2018-06-19T08:36:41.308Z,25.67
2018-06-19T08:39:12.692Z,27.39
2018-06-19T08:41:42.974Z,28.54
2018-06-19T08:44:12.148Z,27.76
2018-06-19T08:46:42.283Z,27.51
2018-06-19T08:49:12.736Z,27.77
2018-06-19T08:51:41.926Z,27.29
2018-06-19T08:54:11.005Z,26.97
2018-06-19T08:56:40.032Z,26.55
2018-06-19T08:59:09.101Z,27.33
2018-06-19T09:01:38.153Z,27.98
2018-06-19T09:04:07.150Z,28.64
2018-06-19T09:06:36.150Z,29.62
2018-06-19T09:09:07.964Z,29.48
2018-06-19T09:11:36.950Z,29.57
2018-06-19T09:14:06.143Z,29.61
2018-06-19T09:16:35.160Z,29.47
2018-06-19T09:19:04.210Z,29.78
2018-06-19T09:21:33.214Z,30.56
2018-06-19T09:24:02.274Z,29.48
2018-06-19T09:26:31.281Z,28.97
2018-06-19T09:29:00.263Z,29.20
2018-06-19T09:31:29.293Z,28.58
2018-06-19T09:33:58.284Z,28.02
2018-06-19T09:36:27.257Z,26.82
2018-06-19T09:38:56.341Z,26.06
2018-06-19T09:41:25.442Z,25.98
2018-06-19T09:43:54.440Z,26.21
2018-06-19T09:46:23.476Z,26.50
2018-06-19T09:48:52.461Z,26.11
2018-06-19T09:51:21.546Z,26.06
2018-06-19T09:53:50.580Z,26.26
2018-06-19T09:56:19.592Z,26.47
2018-06-19T09:58:48.681Z,26.18
2018-06-19T10:01:17.685Z,25.74
2018-06-19T10:03:46.710Z,25.54
2018-06-19T10:06:15.799Z,25.26
2018-06-19T10:08:44.728Z,24.63
2018-06-19T10:11:14.215Z,24.21
2018-06-19T10:13:43.252Z,24.27
2018-06-19T10:16:12.657Z,24.30
2018-06-19T10:18:41.629Z,24.90
2018-06-19T10:21:10.635Z,25.92
2018-06-19T10:23:39.614Z,26.55
2018-06-19T10:26:08.591Z,26.01
2018-06-19T10:28:37.605Z,25.93
2018-06-19T10:31:06.720Z,25.72
2018-06-19T10:33:35.714Z,25.62
2018-06-19T10:36:04.818Z,26.08
2018-06-19T10:38:33.813Z,27.30
2018-06-19T10:41:02.957Z,28.52
2018-06-19T10:43:31.982Z,27.70
2018-06-19T10:46:01.005Z,27.49
2018-06-19T10:48:29.993Z,27.26
2018-06-19T10:50:58.985Z,27.17
2018-06-19T10:53:28.106Z,27.20
2018-06-19T10:55:57.090Z,28.27
2018-06-19T10:58:26.087Z,29.33
2018-06-19T11:00:55.063Z,29.81
2018-06-19T11:03:24.063Z,30.01
2018-06-19T11:05:53.048Z,30.23
2018-06-19T11:08:22.079Z,30.18
2018-06-19T11:10:51.045Z,29.30
2018-06-19T11:13:20.048Z,28.42
2018-06-19T11:15:49.042Z,27.35
2018-06-19T11:18:18.024Z,26.73
2018-06-19T11:20:48.876Z,27.06
2018-06-19T11:23:17.858Z,27.03
2018-06-19T11:25:46.900Z,27.35
2018-06-19T11:28:15.893Z,27.90
2018-06-19T11:30:44.957Z,27.53
2018-06-19T11:33:14.016Z,27.19
2018-06-19T11:35:43.162Z,26.86
2018-06-19T11:38:12.233Z,26.81
2018-06-19T11:40:41.405Z,26.75
2018-06-19T11:43:10.416Z,26.63
2018-06-19T11:45:39.425Z,26.76
2018-06-19T11:48:08.481Z,26.69
2018-06-19T11:50:37.501Z,26.82
2018-06-19T11:53:06.491Z,26.72
2018-06-19T11:55:35.555Z,26.95
2018-06-19T11:58:04.575Z,27.42
2018-06-19T12:00:33.615Z,29.00
2018-06-19T12:03:02.663Z,30.00
2018-06-19T12:05:31.669Z,30.76
2018-06-19T12:08:00.659Z,29.14
2018-06-19T12:10:29.633Z,28.41
2018-06-19T12:12:58.634Z,27.73
2018-06-19T12:15:27.623Z,27.24
2018-06-19T12:17:56.622Z,26.69
2018-06-19T12:20:25.628Z,26.68
2018-06-19T12:22:54.694Z,26.66
2018-06-19T12:25:23.686Z,26.39
2018-06-19T12:27:52.709Z,26.45
2018-06-19T12:30:21.717Z,26.26
2018-06-19T12:32:50.828Z,26.22
2018-06-19T12:35:19.860Z,26.42
2018-06-19T12:37:48.877Z,26.67
2018-06-19T12:40:17.900Z,27.37
2018-06-19T12:42:46.921Z,27.54
2018-06-19T12:45:15.908Z,27.91
2018-06-19T12:47:45.224Z,28.03
2018-06-19T12:50:36.353Z,28.54
2018-06-19T12:53:17.566Z,28.71
2018-06-19T12:55:58.651Z,28.63
2018-06-19T12:58:27.666Z,28.47
2018-06-19T13:00:56.708Z,28.58
2018-06-19T13:03:37.116Z,28.22
2018-06-19T13:06:17.592Z,27.88
2018-06-19T13:08:46.600Z,28.39
2018-06-19T13:11:15.809Z,27.97
2018-06-19T13:14:55.665Z,28.15
2018-06-19T13:17:36.020Z,29.83
2018-06-19T13:20:16.337Z,31.55
2018-06-19T13:22:45.374Z,31.56
2018-06-19T13:25:14.399Z,31.49
2018-06-19T13:27:43.394Z,30.73
2018-06-19T13:30:23.866Z,29.60
2018-06-19T13:32:52.816Z,29.24
2018-06-19T13:35:21.867Z,29.20
2018-06-19T13:37:50.858Z,28.52
2018-06-19T13:41:29.483Z,28.05
2018-06-19T13:44:11.626Z,28.03
2018-06-19T13:46:40.689Z,27.90
2018-06-19T13:49:09.684Z,27.98
2018-06-19T13:51:39.308Z,28.58
2018-06-19T13:54:08.475Z,28.77
2018-06-19T13:57:25.185Z,28.89
2018-06-19T13:59:54.254Z,29.36
2018-06-19T14:02:23.249Z,30.05
2018-06-19T14:04:52.240Z,30.47
2018-06-19T14:07:22.353Z,31.71
2018-06-19T14:10:02.753Z,32.15
2018-06-19T14:13:13.370Z,32.02
2018-06-19T14:15:48.841Z,31.30
2018-06-19T14:18:18.917Z,30.68
2018-06-19T14:20:47.987Z,29.91
2018-06-19T14:23:17.071Z,29.44
2018-06-19T14:25:46.066Z,28.88
2018-06-19T14:28:15.055Z,28.88
2018-06-19T14:30:44.113Z,28.90
2018-06-19T14:33:13.590Z,28.56
2018-06-19T14:35:42.506Z,28.27
2018-06-19T14:38:11.495Z,28.27
2018-06-19T14:40:40.544Z,28.06
2018-06-19T14:43:09.520Z,28.20
2018-06-19T14:45:38.495Z,27.81
2018-06-19T14:48:07.463Z,27.70
2018-06-19T14:50:36.482Z,27.66
2018-06-19T14:53:06.877Z,27.82
2018-06-19T14:55:35.875Z,27.81
2018-06-19T14:58:05.091Z,28.00
2018-06-19T15:00:34.083Z,28.07
2018-06-19T15:03:03.061Z,27.79
2018-06-19T15:05:32.079Z,27.87
2018-06-19T15:08:01.095Z,27.55
2018-06-19T15:10:30.178Z,27.76
2018-06-19T15:12:59.157Z,27.70
2018-06-19T15:15:28.157Z,27.98
2018-06-19T15:17:57.185Z,27.72
2018-06-19T15:20:26.266Z,27.74
2018-06-19T15:22:55.475Z,27.60
2018-06-19T15:25:24.496Z,27.43
2018-06-19T15:27:53.475Z,27.51
2018-06-19T15:30:22.469Z,27.40
2018-06-19T15:32:51.499Z,27.28
2018-06-19T15:35:20.481Z,27.31
2018-06-19T15:37:49.539Z,27.11
2018-06-19T15:40:18.553Z,27.06
2018-06-19T15:42:47.579Z,27.04
2018-06-19T15:45:16.549Z,27.34
2018-06-19T15:47:45.566Z,27.55
2018-06-19T15:50:14.572Z,27.39
2018-06-19T15:52:43.580Z,27.12
2018-06-19T15:55:12.632Z,26.98
2018-06-19T15:57:41.663Z,26.75
2018-06-19T16:00:10.706Z,26.71
2018-06-19T16:02:39.681Z,26.92
2018-06-19T16:05:08.670Z,26.86
2018-06-19T16:07:41.826Z,26.77
2018-06-19T16:10:10.937Z,26.78
2018-06-19T16:12:40.660Z,26.52
2018-06-19T16:15:09.590Z,26.30
2018-06-19T16:17:38.655Z,26.47
2018-06-19T16:20:07.629Z,26.11
2018-06-19T16:22:36.615Z,26.23
2018-06-19T16:25:05.593Z,26.07
2018-06-19T16:27:34.695Z,26.01
2018-06-19T16:30:03.771Z,26.02
2018-06-19T16:32:32.865Z,25.94
2018-06-19T16:35:01.888Z,25.92
2018-06-19T16:37:30.915Z,25.82
2018-06-19T16:39:59.949Z,25.61
2018-06-19T16:42:29.645Z,25.42
2018-06-19T16:44:58.609Z,25.53
2018-06-19T16:47:27.648Z,25.59
2018-06-19T16:49:56.667Z,25.42
2018-06-19T16:52:25.640Z,25.47
2018-06-19T16:54:54.610Z,25.32
2018-06-19T16:57:23.648Z,25.29
2018-06-19T16:59:52.690Z,25.42
2018-06-19T17:02:21.685Z,25.17
2018-06-19T17:04:50.734Z,25.17
2018-06-19T17:07:19.850Z,25.10
2018-06-19T17:09:48.825Z,24.96
2018-06-19T17:12:17.828Z,25.01
2018-06-19T17:14:46.867Z,25.02
2018-06-19T17:17:16.028Z,25.04
2018-06-19T17:19:45.087Z,25.01
2018-06-19T17:22:14.328Z,24.88
2018-06-19T17:24:43.331Z,24.99
2018-06-19T17:27:12.327Z,24.95
2018-06-19T17:29:41.332Z,24.80
2018-06-19T17:32:10.451Z,24.81
2018-06-19T17:34:39.489Z,24.84
2018-06-19T17:37:08.461Z,24.76
2018-06-19T17:39:37.473Z,24.78
2018-06-19T17:42:06.592Z,24.65
2018-06-19T17:44:35.645Z,24.55
2018-06-19T17:47:05.219Z,24.54
2018-06-19T17:49:34.238Z,24.59
2018-06-19T17:52:03.936Z,24.41
2018-06-19T17:54:33.073Z,24.28
2018-06-19T17:57:02.325Z,24.27
2018-06-19T17:59:31.364Z,24.29
2018-06-19T18:02:00.795Z,24.29
2018-06-19T18:04:29.870Z,24.23
2018-06-19T18:06:58.986Z,24.20
2018-06-19T18:09:28.537Z,24.18
2018-06-19T18:11:57.687Z,24.21
2018-06-19T18:14:27.070Z,24.15
2018-06-19T18:17:02.765Z,24.09
2018-06-19T18:19:32.504Z,23.94
2018-06-19T18:22:02.070Z,23.81
2018-06-19T18:24:31.110Z,23.75
2018-06-19T18:27:00.435Z,23.74
2018-06-19T18:29:29.497Z,23.68
2018-06-19T18:31:58.564Z,23.72
2018-06-19T18:34:28.031Z,23.61
2018-06-19T18:36:57.061Z,23.55
2018-06-19T18:39:26.234Z,23.47
2018-06-19T18:41:55.271Z,23.46
2018-06-19T18:44:24.741Z,23.39
2018-06-19T18:46:53.804Z,23.37
2018-06-19T18:49:22.844Z,23.31
2018-06-19T18:51:51.959Z,23.29
2018-06-19T18:54:20.893Z,23.25
2018-06-19T18:56:49.961Z,23.25
2018-06-19T18:59:19.020Z,23.16
2018-06-19T19:01:48.034Z,23.09
2018-06-19T19:04:17.031Z,22.99
2018-06-19T19:06:46.166Z,22.96
2018-06-19T19:09:15.145Z,22.90
2018-06-19T19:11:44.159Z,22.82
2018-06-19T19:14:13.208Z,22.75
2018-06-19T19:16:47.579Z,22.65
2018-06-19T19:19:18.699Z,22.56
2018-06-19T19:21:47.681Z,22.46
2018-06-19T19:24:16.732Z,22.35
2018-06-19T19:26:51.197Z,22.28
2018-06-19T19:29:25.654Z,22.20
2018-06-19T19:31:54.770Z,22.10
2018-06-19T19:34:23.971Z,21.99
2018-06-19T19:36:58.493Z,21.90
2018-06-19T19:39:29.156Z,21.81
2018-06-19T19:41:58.161Z,21.73
2018-06-19T19:44:27.220Z,21.64
2018-06-19T19:47:01.497Z,21.58
2018-06-19T19:49:30.475Z,21.50
2018-06-19T19:51:59.469Z,21.45
2018-06-19T19:54:28.437Z,21.37
2018-06-19T19:57:03.034Z,21.33
2018-06-19T19:59:32.016Z,21.23
2018-06-19T20:02:01.226Z,21.14
2018-06-19T20:04:30.192Z,21.09
2018-06-19T20:06:59.147Z,21.03
2018-06-19T20:09:28.983Z,20.93
2018-06-19T20:11:58.122Z,20.83
2018-06-19T20:14:27.183Z,20.75
2018-06-19T20:16:56.248Z,20.64
2018-06-19T20:19:25.320Z,20.58
2018-06-19T20:21:54.446Z,20.53
2018-06-19T20:24:23.562Z,20.45
2018-06-19T20:26:54.265Z,20.37
2018-06-19T20:29:23.617Z,20.32
2018-06-19T20:31:52.733Z,20.23
2018-06-19T20:34:21.773Z,20.15
2018-06-19T20:36:50.766Z,20.12
2018-06-19T20:39:19.848Z,20.07
2018-06-19T20:41:48.977Z,20.00
2018-06-19T20:44:17.947Z,19.89
2018-06-19T20:46:46.917Z,19.83
2018-06-19T20:49:15.890Z,19.72
2018-06-19T20:51:44.889Z,19.67
2018-06-19T20:54:14.491Z,19.60
2018-06-19T20:56:43.498Z,19.54
2018-06-19T20:59:12.492Z,19.50
2018-06-19T21:01:41.599Z,19.46
2018-06-19T21:04:10.701Z,19.40
2018-06-19T21:06:39.718Z,19.34
2018-06-19T21:09:08.858Z,19.33
2018-06-19T21:11:37.962Z,19.31
2018-06-19T21:14:06.947Z,19.29
2018-06-19T21:16:36.052Z,19.23
2018-06-19T21:19:05.100Z,19.20
2018-06-19T21:21:34.141Z,19.19
2018-06-19T21:24:03.099Z,19.18
2018-06-19T21:26:32.107Z,19.26
2018-06-19T21:29:01.122Z,19.23
2018-06-19T21:31:30.145Z,19.22
2018-06-19T21:33:59.167Z,19.22
2018-06-19T21:36:28.356Z,19.21
2018-06-19T21:38:57.412Z,19.20
2018-06-19T21:41:26.416Z,19.17
2018-06-19T21:43:55.636Z,19.13
2018-06-19T21:46:24.602Z,19.10
2018-06-19T21:48:53.727Z,19.07
2018-06-19T21:51:22.718Z,19.06
2018-06-19T21:53:51.712Z,19.00
2018-06-19T21:56:20.672Z,18.96
2018-06-19T21:58:49.691Z,18.90
2018-06-19T22:01:18.669Z,18.86
2018-06-19T22:03:47.912Z,18.80
2018-06-19T22:06:16.886Z,18.71
2018-06-19T22:08:51.823Z,18.66
2018-06-19T22:11:21.555Z,18.56
2018-06-19T22:13:50.557Z,18.57
2018-06-19T22:16:19.556Z,18.57
2018-06-19T22:18:48.712Z,18.61
2018-06-19T22:21:17.701Z,18.67
2018-06-19T22:23:48.003Z,18.68
2018-06-19T22:26:17.452Z,18.73
2018-06-19T22:28:46.494Z,18.73
2018-06-19T22:31:15.505Z,18.71
2018-06-19T22:33:44.632Z,18.72
2018-06-19T22:36:13.672Z,18.75
2018-06-19T22:38:42.798Z,18.84
2018-06-19T22:41:11.883Z,18.89
2018-06-19T22:43:41.019Z,18.95
2018-06-19T22:46:10.033Z,19.00
2018-06-19T22:48:39.046Z,19.07
2018-06-19T22:51:08.083Z,19.16
2018-06-19T22:53:37.038Z,19.19
2018-06-19T22:56:12.944Z,19.24
2018-06-19T22:58:41.966Z,19.23
2018-06-19T23:01:11.040Z,19.29
2018-06-19T23:03:40.049Z,19.33
2018-06-19T23:06:09.100Z,19.38
2018-06-19T23:08:38.065Z,19.44
2018-06-19T23:11:07.042Z,19.44
2018-06-19T23:13:36.013Z,19.46
2018-06-19T23:16:04.963Z,19.49
2018-06-19T23:18:33.970Z,19.46
2018-06-19T23:21:02.936Z,19.50
2018-06-19T23:23:31.942Z,19.49
2018-06-19T23:26:00.888Z,19.52
2018-06-19T23:28:29.869Z,19.53
2018-06-19T23:30:59.014Z,19.52
2018-06-19T23:33:28.070Z,19.54
2018-06-19T23:35:57.030Z,19.53
2018-06-19T23:38:26.016Z,19.52
2018-06-19T23:40:55.006Z,19.57
2018-06-19T23:43:23.989Z,19.56
2018-06-19T23:45:52.948Z,19.59
2018-06-19T23:48:22.038Z,19.56
2018-06-19T23:50:51.010Z,19.55
2018-06-19T23:53:19.967Z,19.57
2018-06-19T23:55:48.937Z,19.59
2018-06-19T23:58:17.950Z,19.61
